Terminal Aerodrome Forecast
Issued by NWS

Home | Current Version | Previous Version | Text Only | Print | Product List | Glossary On
Versions: 1 2 3 4 5 6 7 8 9 10 11 12 13 14 15
000
FTUS44 KLIX 271120
TAFHDC
TAF
KHDC 271120Z 2712/2812 23004KT P6SM -RA BKN045 BKN060 OVC110
     FM271400 21008KT 6SM SHRA OVC020
     FM271800 21010KT 6SM TSRA OVC040CB
     FM272200 23006KT 6SM SHRA BKN050
     FM280000 21005KT P6SM BKN090
     FM280400 20004KT P6SM SCT120
     FM280800 00000KT P6SM SCT140=

USA.gov is the U.S. government's official web portal to all federal, state and local government web resources and services.